Impacts METAR Board INFO
IDs:

KMDW - Chicago/Midway Intl, IL, US

Updated at: 1204 UTC 18 Nov 2017
Potential Impact None Slight Moderate High
Time18/00Z 18/01Z 18/02Z 18/03Z 18/04Z 18/05Z 18/06Z 18/07Z 18/08Z 18/09Z 18/10Z 18/11Z 18/12Z
VIS7 2 1.75 3 2 1.5 1.75 2.5 1 1 1.25 1.5 2.5
CIG26 22 12 10 9 12 12 19 9 6 4 3 5
CoverOVCOVCOVCOVCOVCOVCOVCOVCOVCOVCOVCOVCOVC
FltCatMVFRIFRIFRMVFRIFRIFRIFRIFRIFRIFRLIFRLIFRIFR
WX-RA-RA BR-DZ BR-DZ BR-RA BR-RA BR-DZ BRBR-DZ BR-DZ BRBRBRBR
WDir1801701902002102102203000501302030
WSpd10 10 11 12 11 13 8 4 0 3 4 6 13
WGst16 19 18 18 -- 18 -- -- -- -- -- -- --
Raw hourly METARs
KMDW 180003Z 18010G16KT 7SM -RA SCT020 BKN026 OVC032 06/05 A2969 RMK AO2 LTG DSNT NE-S TSE2357 OCNL LTGIC DSNT E-S CB DSNT E-S P0004 T00610050
KMDW 180053Z 17010G19KT 2SM -RA BR FEW009 OVC022 06/05 A2965 RMK AO2 TSE2357 PRESFR SLP048 P0006 T00610050
KMDW 180159Z 19011G18KT 1 3/4SM -DZ BR FEW009 BKN012 OVC018 07/06 A2963 RMK AO2 P0000 T00670056
KMDW 180253Z 20012G18KT 3SM -DZ BR OVC010 07/06 A2961 RMK AO2 DZE29B49RAB29E49 CIG 008V013 SLP031 P0002 60008 T00720061 56029
KMDW 180353Z 21011KT 2SM -RA BR OVC009 08/07 A2959 RMK AO2 DZE12B44E49RAB12 CIG 007V012 SLP025 P0002 T00830072
KMDW 180453Z 21013G18KT 1 1/2SM -RA BR OVC012 09/08 A2957 RMK AO2 SLP019 P0003 T00890078
KMDW 180553Z 22008KT 1 3/4SM -DZ BR BKN012 OVC017 09/08 A2956 RMK AO2 RAE51DZB51 SLP015 P0003 60016 T00890083 10089 20061 400890022 58008
KMDW 180653Z 30004KT 2 1/2SM BR OVC019 09/08 A2955 RMK AO2 DZE53 SLP011 P0000 T00890083
KMDW 180753Z 00000KT 1SM R31C/P6000FT -DZ BR BKN009 OVC013 09/08 A2954 RMK AO2 DZB11 CIG 006V010 SLP005 P0000 T00890083
KMDW 180853Z 05003KT 1SM R31C/P6000FT -DZ BR BKN006 OVC021 09/08 A2952 RMK AO2 SLP999 P0001 60001 T00890083 58017
KMDW 180953Z 13004KT 1 1/4SM BR OVC004 08/08 A2950 RMK AO2 DZE20 SLP994 P0000 T00830083
KMDW 181053Z 02006KT 1 1/2SM BR OVC003 08/08 A2950 RMK AO2 SLP992 T00830083
KMDW 181153Z 03013KT 2 1/2SM BR OVC005 08/07 A2946 RMK AO2 SLP981 60001 70053 T00780072 10089 20078 58017